sensor_id;sensor_type;location;lat;lon;timestamp;P1;durP1;ratioP1;P2;durP2;ratioP2
76157;SDS011;64907;51.574;6.502;2023-11-19T00:00:15;13.98;;;12.73;;
76157;SDS011;64907;51.574;6.502;2023-11-19T00:02:40;14.00;;;12.88;;
76157;SDS011;64907;51.574;6.502;2023-11-19T00:05:06;12.82;;;11.63;;
76157;SDS011;64907;51.574;6.502;2023-11-19T00:07:37;13.10;;;11.98;;
76157;SDS011;64907;51.574;6.502;2023-11-19T00:10:09;12.68;;;11.68;;
76157;SDS011;64907;51.574;6.502;2023-11-19T00:12:35;12.52;;;11.52;;
76157;SDS011;64907;51.574;6.502;2023-11-19T00:15:02;12.20;;;11.13;;
76157;SDS011;64907;51.574;6.502;2023-11-19T00:19:58;12.82;;;11.55;;
76157;SDS011;64907;51.574;6.502;2023-11-19T00:22:23;12.93;;;11.90;;
76157;SDS011;64907;51.574;6.502;2023-11-19T00:24:50;13.57;;;12.15;;
76157;SDS011;64907;51.574;6.502;2023-11-19T00:29:45;13.90;;;12.60;;
76157;SDS011;64907;51.574;6.502;2023-11-19T00:32:12;13.75;;;12.55;;
76157;SDS011;64907;51.574;6.502;2023-11-19T00:34:37;12.45;;;11.35;;
76157;SDS011;64907;51.574;6.502;2023-11-19T00:37:03;13.48;;;12.15;;
76157;SDS011;64907;51.574;6.502;2023-11-19T00:39:29;13.10;;;11.90;;
76157;SDS011;64907;51.574;6.502;2023-11-19T00:41:54;12.75;;;11.40;;
76157;SDS011;64907;51.574;6.502;2023-11-19T00:44:19;13.40;;;11.40;;
76157;SDS011;64907;51.574;6.502;2023-11-19T00:46:44;12.13;;;10.93;;
76157;SDS011;64907;51.574;6.502;2023-11-19T00:49:16;10.77;;;9.63;;
76157;SDS011;64907;51.574;6.502;2023-11-19T00:51:41;12.05;;;10.70;;
76157;SDS011;64907;51.574;6.502;2023-11-19T00:54:06;11.57;;;9.90;;
76157;SDS011;64907;51.574;6.502;2023-11-19T00:59:04;12.77;;;10.13;;
76157;SDS011;64907;51.574;6.502;2023-11-19T01:01:32;10.63;;;9.80;;
76157;SDS011;64907;51.574;6.502;2023-11-19T01:03:57;10.55;;;9.07;;
76157;SDS011;64907;51.574;6.502;2023-11-19T01:06:29;9.03;;;8.33;;
76157;SDS011;64907;51.574;6.502;2023-11-19T01:08:54;9.07;;;8.20;;
76157;SDS011;64907;51.574;6.502;2023-11-19T01:11:21;8.80;;;8.10;;
76157;SDS011;64907;51.574;6.502;2023-11-19T01:13:47;8.55;;;7.88;;
76157;SDS011;64907;51.574;6.502;2023-11-19T01:16:12;9.00;;;8.30;;
76157;SDS011;64907;51.574;6.502;2023-11-19T01:18:39;8.50;;;7.80;;
76157;SDS011;64907;51.574;6.502;2023-11-19T01:21:04;8.68;;;7.93;;
76157;SDS011;64907;51.574;6.502;2023-11-19T01:25:59;8.68;;;8.07;;
76157;SDS011;64907;51.574;6.502;2023-11-19T01:28:24;8.23;;;7.60;;
76157;SDS011;64907;51.574;6.502;2023-11-19T01:33:28;7.97;;;7.38;;
76157;SDS011;64907;51.574;6.502;2023-11-19T01:35:53;7.47;;;6.97;;
76157;SDS011;64907;51.574;6.502;2023-11-19T01:38:28;7.90;;;7.50;;
76157;SDS011;64907;51.574;6.502;2023-11-19T01:40:56;7.85;;;6.85;;
76157;SDS011;64907;51.574;6.502;2023-11-19T01:43:32;7.20;;;6.55;;
76157;SDS011;64907;51.574;6.502;2023-11-19T01:45:58;6.90;;;6.50;;
76157;SDS011;64907;51.574;6.502;2023-11-19T01:48:23;7.45;;;6.75;;
76157;SDS011;64907;51.574;6.502;2023-11-19T01:50:48;6.55;;;6.00;;
76157;SDS011;64907;51.574;6.502;2023-11-19T01:55:51;6.28;;;5.78;;
76157;SDS011;64907;51.574;6.502;2023-11-19T01:58:17;5.82;;;5.32;;
76157;SDS011;64907;51.574;6.502;2023-11-19T02:00:49;6.18;;;5.30;;
76157;SDS011;64907;51.574;6.502;2023-11-19T02:03:14;8.13;;;5.70;;
76157;SDS011;64907;51.574;6.502;2023-11-19T02:05:43;5.72;;;5.22;;
76157;SDS011;64907;51.574;6.502;2023-11-19T02:08:08;6.00;;;5.32;;
76157;SDS011;64907;51.574;6.502;2023-11-19T02:10:33;6.13;;;5.35;;
76157;SDS011;64907;51.574;6.502;2023-11-19T02:13:00;6.77;;;5.10;;
76157;SDS011;64907;51.574;6.502;2023-11-19T02:15:25;7.50;;;5.35;;
76157;SDS011;64907;51.574;6.502;2023-11-19T02:20:36;10.05;;;5.15;;
76157;SDS011;64907;51.574;6.502;2023-11-19T02:23:02;10.07;;;4.90;;
76157;SDS011;64907;51.574;6.502;2023-11-19T02:25:30;6.68;;;4.35;;
76157;SDS011;64907;51.574;6.502;2023-11-19T02:28:00;14.40;;;4.70;;
76157;SDS011;64907;51.574;6.502;2023-11-19T02:30:27;12.77;;;5.30;;
76157;SDS011;64907;51.574;6.502;2023-11-19T02:32:53;8.48;;;4.07;;
76157;SDS011;64907;51.574;6.502;2023-11-19T02:35:19;11.85;;;4.95;;
76157;SDS011;64907;51.574;6.502;2023-11-19T02:37:46;10.23;;;4.35;;
76157;SDS011;64907;51.574;6.502;2023-11-19T02:40:11;8.85;;;4.13;;
76157;SDS011;64907;51.574;6.502;2023-11-19T02:42:38;9.98;;;4.10;;
76157;SDS011;64907;51.574;6.502;2023-11-19T02:45:03;8.07;;;3.63;;
76157;SDS011;64907;51.574;6.502;2023-11-19T02:47:31;13.93;;;3.97;;
76157;SDS011;64907;51.574;6.502;2023-11-19T02:49:56;9.23;;;4.07;;
76157;SDS011;64907;51.574;6.502;2023-11-19T02:52:29;9.80;;;3.80;;
76157;SDS011;64907;51.574;6.502;2023-11-19T02:54:57;8.23;;;3.60;;
76157;SDS011;64907;51.574;6.502;2023-11-19T02:57:24;12.65;;;3.67;;
76157;SDS011;64907;51.574;6.502;2023-11-19T03:02:21;11.10;;;3.83;;
76157;SDS011;64907;51.574;6.502;2023-11-19T03:04:47;16.48;;;4.30;;
76157;SDS011;64907;51.574;6.502;2023-11-19T03:07:18;14.15;;;5.10;;
76157;SDS011;64907;51.574;6.502;2023-11-19T03:09:43;18.58;;;4.50;;
76157;SDS011;64907;51.574;6.502;2023-11-19T03:12:09;13.43;;;4.32;;
76157;SDS011;64907;51.574;6.502;2023-11-19T03:17:04;12.32;;;4.25;;
76157;SDS011;64907;51.574;6.502;2023-11-19T03:22:04;14.20;;;3.88;;
76157;SDS011;64907;51.574;6.502;2023-11-19T03:24:29;13.73;;;3.97;;
76157;SDS011;64907;51.574;6.502;2023-11-19T03:26:54;14.27;;;4.60;;
76157;SDS011;64907;51.574;6.502;2023-11-19T03:29:19;14.00;;;3.73;;
76157;SDS011;64907;51.574;6.502;2023-11-19T03:31:44;13.07;;;3.80;;
76157;SDS011;64907;51.574;6.502;2023-11-19T03:34:10;16.67;;;4.90;;
76157;SDS011;64907;51.574;6.502;2023-11-19T03:36:35;13.27;;;3.83;;
76157;SDS011;64907;51.574;6.502;2023-11-19T03:39:02;15.98;;;4.05;;
76157;SDS011;64907;51.574;6.502;2023-11-19T03:41:28;14.32;;;3.25;;
76157;SDS011;64907;51.574;6.502;2023-11-19T03:43:53;21.10;;;4.90;;
76157;SDS011;64907;51.574;6.502;2023-11-19T03:46:18;18.25;;;5.45;;
76157;SDS011;64907;51.574;6.502;2023-11-19T03:48:44;21.00;;;3.95;;
76157;SDS011;64907;51.574;6.502;2023-11-19T03:51:11;15.52;;;4.50;;
76157;SDS011;64907;51.574;6.502;2023-11-19T03:53:40;24.95;;;4.60;;
76157;SDS011;64907;51.574;6.502;2023-11-19T04:01:11;14.55;;;4.30;;
76157;SDS011;64907;51.574;6.502;2023-11-19T04:03:47;19.75;;;4.15;;
76157;SDS011;64907;51.574;6.502;2023-11-19T04:06:12;18.67;;;4.45;;
76157;SDS011;64907;51.574;6.502;2023-11-19T04:08:37;25.00;;;4.93;;
76157;SDS011;64907;51.574;6.502;2023-11-19T04:11:03;31.92;;;5.15;;
76157;SDS011;64907;51.574;6.502;2023-11-19T04:13:29;20.20;;;4.22;;
76157;SDS011;64907;51.574;6.502;2023-11-19T04:15:54;20.67;;;3.83;;
76157;SDS011;64907;51.574;6.502;2023-11-19T04:18:19;20.33;;;4.50;;
76157;SDS011;64907;51.574;6.502;2023-11-19T04:20:44;20.07;;;4.33;;
76157;SDS011;64907;51.574;6.502;2023-11-19T04:23:09;23.00;;;4.50;;
76157;SDS011;64907;51.574;6.502;2023-11-19T04:25:36;27.38;;;4.20;;
76157;SDS011;64907;51.574;6.502;2023-11-19T04:28:01;29.85;;;4.95;;
76157;SDS011;64907;51.574;6.502;2023-11-19T04:30:27;24.15;;;3.88;;
76157;SDS011;64907;51.574;6.502;2023-11-19T04:32:52;21.52;;;4.55;;
76157;SDS011;64907;51.574;6.502;2023-11-19T04:35:17;26.87;;;5.63;;
76157;SDS011;64907;51.574;6.502;2023-11-19T04:37:44;26.52;;;5.35;;
76157;SDS011;64907;51.574;6.502;2023-11-19T04:40:09;31.73;;;5.72;;
76157;SDS011;64907;51.574;6.502;2023-11-19T04:42:35;31.08;;;5.68;;
76157;SDS011;64907;51.574;6.502;2023-11-19T04:45:01;27.30;;;5.30;;
76157;SDS011;64907;51.574;6.502;2023-11-19T04:47:33;22.57;;;4.60;;
76157;SDS011;64907;51.574;6.502;2023-11-19T04:49:58;29.02;;;5.20;;
76157;SDS011;64907;51.574;6.502;2023-11-19T04:52:25;31.58;;;5.18;;
76157;SDS011;64907;51.574;6.502;2023-11-19T04:54:58;30.17;;;5.30;;
76157;SDS011;64907;51.574;6.502;2023-11-19T04:57:24;29.88;;;4.95;;
76157;SDS011;64907;51.574;6.502;2023-11-19T04:59:49;32.53;;;5.37;;
76157;SDS011;64907;51.574;6.502;2023-11-19T05:02:14;23.98;;;5.70;;
76157;SDS011;64907;51.574;6.502;2023-11-19T05:04:43;26.00;;;5.00;;
76157;SDS011;64907;51.574;6.502;2023-11-19T05:07:09;38.55;;;5.25;;
76157;SDS011;64907;51.574;6.502;2023-11-19T05:09:36;25.83;;;5.57;;
76157;SDS011;64907;51.574;6.502;2023-11-19T05:12:02;27.20;;;4.70;;
76157;SDS011;64907;51.574;6.502;2023-11-19T05:14:27;24.30;;;4.70;;
76157;SDS011;64907;51.574;6.502;2023-11-19T05:16:52;23.67;;;4.95;;
76157;SDS011;64907;51.574;6.502;2023-11-19T05:19:19;29.90;;;5.78;;
76157;SDS011;64907;51.574;6.502;2023-11-19T05:21:44;26.60;;;5.70;;
76157;SDS011;64907;51.574;6.502;2023-11-19T05:24:09;29.38;;;5.10;;
76157;SDS011;64907;51.574;6.502;2023-11-19T05:26:34;27.00;;;5.50;;
76157;SDS011;64907;51.574;6.502;2023-11-19T05:29:00;28.27;;;6.00;;
76157;SDS011;64907;51.574;6.502;2023-11-19T05:31:25;29.17;;;5.57;;
76157;SDS011;64907;51.574;6.502;2023-11-19T05:33:50;22.07;;;4.83;;
76157;SDS011;64907;51.574;6.502;2023-11-19T05:36:15;29.90;;;5.50;;
76157;SDS011;64907;51.574;6.502;2023-11-19T05:38:40;33.00;;;5.50;;
76157;SDS011;64907;51.574;6.502;2023-11-19T05:43:35;28.75;;;5.65;;
76157;SDS011;64907;51.574;6.502;2023-11-19T05:46:12;32.97;;;5.60;;
76157;SDS011;64907;51.574;6.502;2023-11-19T05:51:07;26.95;;;4.68;;
76157;SDS011;64907;51.574;6.502;2023-11-19T05:53:33;28.80;;;4.90;;
76157;SDS011;64907;51.574;6.502;2023-11-19T05:55:58;27.57;;;5.07;;
76157;SDS011;64907;51.574;6.502;2023-11-19T05:58:26;25.60;;;4.80;;
76157;SDS011;64907;51.574;6.502;2023-11-19T06:03:26;22.95;;;5.25;;
76157;SDS011;64907;51.574;6.502;2023-11-19T06:05:51;19.33;;;4.25;;
76157;SDS011;64907;51.574;6.502;2023-11-19T06:08:16;25.80;;;5.15;;
76157;SDS011;64907;51.574;6.502;2023-11-19T06:10:44;26.95;;;5.38;;
76157;SDS011;64907;51.574;6.502;2023-11-19T06:13:14;34.72;;;5.85;;
76157;SDS011;64907;51.574;6.502;2023-11-19T06:15:43;25.77;;;5.53;;
76157;SDS011;64907;51.574;6.502;2023-11-19T06:18:09;31.55;;;5.45;;
76157;SDS011;64907;51.574;6.502;2023-11-19T06:20:37;37.75;;;5.55;;
76157;SDS011;64907;51.574;6.502;2023-11-19T06:23:04;31.90;;;5.32;;
76157;SDS011;64907;51.574;6.502;2023-11-19T06:25:31;33.27;;;7.37;;
76157;SDS011;64907;51.574;6.502;2023-11-19T06:27:56;26.13;;;6.38;;
76157;SDS011;64907;51.574;6.502;2023-11-19T06:32:57;28.35;;;6.43;;
76157;SDS011;64907;51.574;6.502;2023-11-19T06:38:03;33.95;;;5.53;;
76157;SDS011;64907;51.574;6.502;2023-11-19T06:43:03;33.65;;;5.57;;
76157;SDS011;64907;51.574;6.502;2023-11-19T06:45:42;31.23;;;5.60;;
76157;SDS011;64907;51.574;6.502;2023-11-19T06:48:07;29.77;;;5.95;;
76157;SDS011;64907;51.574;6.502;2023-11-19T06:50:32;27.13;;;5.83;;
76157;SDS011;64907;51.574;6.502;2023-11-19T06:52:58;26.45;;;5.97;;
76157;SDS011;64907;51.574;6.502;2023-11-19T06:55:26;31.55;;;5.65;;
76157;SDS011;64907;51.574;6.502;2023-11-19T06:57:51;35.35;;;6.00;;
76157;SDS011;64907;51.574;6.502;2023-11-19T07:00:16;34.40;;;5.50;;
76157;SDS011;64907;51.574;6.502;2023-11-19T07:02:43;41.58;;;6.63;;
76157;SDS011;64907;51.574;6.502;2023-11-19T07:05:09;36.45;;;6.00;;
76157;SDS011;64907;51.574;6.502;2023-11-19T07:07:37;30.02;;;5.90;;
76157;SDS011;64907;51.574;6.502;2023-11-19T07:10:04;22.70;;;5.05;;
76157;SDS011;64907;51.574;6.502;2023-11-19T07:12:30;33.90;;;5.47;;
76157;SDS011;64907;51.574;6.502;2023-11-19T07:14:56;25.38;;;5.07;;
76157;SDS011;64907;51.574;6.502;2023-11-19T07:17:21;28.65;;;4.50;;
76157;SDS011;64907;51.574;6.502;2023-11-19T07:19:47;22.08;;;4.80;;
76157;SDS011;64907;51.574;6.502;2023-11-19T07:22:12;32.17;;;5.63;;
76157;SDS011;64907;51.574;6.502;2023-11-19T07:24:39;27.80;;;5.78;;
76157;SDS011;64907;51.574;6.502;2023-11-19T07:27:11;25.98;;;5.50;;
76157;SDS011;64907;51.574;6.502;2023-11-19T07:29:36;24.85;;;5.40;;
76157;SDS011;64907;51.574;6.502;2023-11-19T07:32:01;30.33;;;5.63;;
76157;SDS011;64907;51.574;6.502;2023-11-19T07:34:27;34.50;;;6.13;;
76157;SDS011;64907;51.574;6.502;2023-11-19T07:36:52;28.80;;;5.93;;
76157;SDS011;64907;51.574;6.502;2023-11-19T07:39:17;30.73;;;6.50;;
76157;SDS011;64907;51.574;6.502;2023-11-19T07:41:42;30.73;;;5.07;;
76157;SDS011;64907;51.574;6.502;2023-11-19T07:46:42;36.65;;;6.43;;
76157;SDS011;64907;51.574;6.502;2023-11-19T07:49:14;31.77;;;5.65;;
76157;SDS011;64907;51.574;6.502;2023-11-19T07:51:40;30.45;;;5.65;;
76157;SDS011;64907;51.574;6.502;2023-11-19T07:54:05;35.77;;;6.17;;
76157;SDS011;64907;51.574;6.502;2023-11-19T07:56:31;34.27;;;7.00;;
76157;SDS011;64907;51.574;6.502;2023-11-19T07:58:56;30.80;;;5.40;;
76157;SDS011;64907;51.574;6.502;2023-11-19T08:01:21;30.40;;;5.53;;
76157;SDS011;64907;51.574;6.502;2023-11-19T08:03:48;28.90;;;5.50;;
76157;SDS011;64907;51.574;6.502;2023-11-19T08:06:19;39.03;;;6.03;;
76157;SDS011;64907;51.574;6.502;2023-11-19T08:08:51;29.20;;;6.00;;
76157;SDS011;64907;51.574;6.502;2023-11-19T08:14:03;34.08;;;5.13;;
76157;SDS011;64907;51.574;6.502;2023-11-19T08:16:29;26.45;;;5.20;;
76157;SDS011;64907;51.574;6.502;2023-11-19T08:18:54;29.57;;;5.67;;
76157;SDS011;64907;51.574;6.502;2023-11-19T08:21:20;38.25;;;6.20;;
76157;SDS011;64907;51.574;6.502;2023-11-19T08:23:48;28.73;;;5.55;;
76157;SDS011;64907;51.574;6.502;2023-11-19T08:26:22;30.90;;;5.15;;
76157;SDS011;64907;51.574;6.502;2023-11-19T08:28:47;27.20;;;5.75;;
76157;SDS011;64907;51.574;6.502;2023-11-19T08:31:20;33.33;;;6.93;;
76157;SDS011;64907;51.574;6.502;2023-11-19T08:33:46;30.40;;;5.63;;
76157;SDS011;64907;51.574;6.502;2023-11-19T08:36:15;36.90;;;5.97;;
76157;SDS011;64907;51.574;6.502;2023-11-19T08:38:44;35.13;;;6.50;;
76157;SDS011;64907;51.574;6.502;2023-11-19T08:41:09;34.40;;;6.47;;
76157;SDS011;64907;51.574;6.502;2023-11-19T08:43:36;35.83;;;6.07;;
76157;SDS011;64907;51.574;6.502;2023-11-19T08:46:01;36.35;;;6.75;;
76157;SDS011;64907;51.574;6.502;2023-11-19T08:48:26;22.37;;;5.80;;
76157;SDS011;64907;51.574;6.502;2023-11-19T08:53:22;31.50;;;5.70;;
76157;SDS011;64907;51.574;6.502;2023-11-19T08:55:49;25.25;;;5.60;;
76157;SDS011;64907;51.574;6.502;2023-11-19T09:00:43;31.15;;;5.93;;
76157;SDS011;64907;51.574;6.502;2023-11-19T09:03:09;25.85;;;4.50;;
76157;SDS011;64907;51.574;6.502;2023-11-19T09:05:36;29.63;;;5.63;;
76157;SDS011;64907;51.574;6.502;2023-11-19T09:08:10;36.63;;;5.78;;
76157;SDS011;64907;51.574;6.502;2023-11-19T09:10:37;30.80;;;6.15;;
76157;SDS011;64907;51.574;6.502;2023-11-19T09:13:03;28.55;;;5.47;;
76157;SDS011;64907;51.574;6.502;2023-11-19T09:15:28;25.02;;;5.50;;
76157;SDS011;64907;51.574;6.502;2023-11-19T09:17:54;31.13;;;6.00;;
76157;SDS011;64907;51.574;6.502;2023-11-19T09:20:19;32.67;;;5.27;;
76157;SDS011;64907;51.574;6.502;2023-11-19T09:22:44;26.60;;;4.87;;
76157;SDS011;64907;51.574;6.502;2023-11-19T09:25:09;28.43;;;5.53;;
76157;SDS011;64907;51.574;6.502;2023-11-19T09:27:34;35.30;;;6.32;;
76157;SDS011;64907;51.574;6.502;2023-11-19T09:30:00;22.27;;;5.37;;
76157;SDS011;64907;51.574;6.502;2023-11-19T09:32:25;28.35;;;5.38;;
76157;SDS011;64907;51.574;6.502;2023-11-19T09:34:52;37.83;;;6.18;;
76157;SDS011;64907;51.574;6.502;2023-11-19T09:37:17;29.35;;;5.07;;
76157;SDS011;64907;51.574;6.502;2023-11-19T09:42:19;30.88;;;5.72;;
76157;SDS011;64907;51.574;6.502;2023-11-19T09:44:44;26.73;;;5.07;;
76157;SDS011;64907;51.574;6.502;2023-11-19T09:47:10;33.03;;;6.13;;
76157;SDS011;64907;51.574;6.502;2023-11-19T09:49:36;33.60;;;6.05;;
76157;SDS011;64907;51.574;6.502;2023-11-19T09:52:08;32.65;;;6.88;;
76157;SDS011;64907;51.574;6.502;2023-11-19T09:54:35;30.20;;;5.78;;
76157;SDS011;64907;51.574;6.502;2023-11-19T09:57:01;32.47;;;5.47;;
76157;SDS011;64907;51.574;6.502;2023-11-19T10:04:29;25.75;;;5.28;;
76157;SDS011;64907;51.574;6.502;2023-11-19T10:06:55;35.80;;;7.20;;
76157;SDS011;64907;51.574;6.502;2023-11-19T10:09:20;30.85;;;5.53;;
76157;SDS011;64907;51.574;6.502;2023-11-19T10:11:45;32.92;;;5.35;;
76157;SDS011;64907;51.574;6.502;2023-11-19T10:14:10;29.88;;;6.13;;
76157;SDS011;64907;51.574;6.502;2023-11-19T10:16:36;30.50;;;5.13;;
76157;SDS011;64907;51.574;6.502;2023-11-19T10:19:02;29.13;;;5.22;;
76157;SDS011;64907;51.574;6.502;2023-11-19T10:21:28;27.60;;;6.20;;
76157;SDS011;64907;51.574;6.502;2023-11-19T10:23:54;33.63;;;6.50;;
76157;SDS011;64907;51.574;6.502;2023-11-19T10:29:04;31.05;;;5.45;;
76157;SDS011;64907;51.574;6.502;2023-11-19T10:34:03;26.50;;;5.63;;
76157;SDS011;64907;51.574;6.502;2023-11-19T10:36:38;31.60;;;5.35;;
76157;SDS011;64907;51.574;6.502;2023-11-19T10:39:05;25.85;;;5.50;;
76157;SDS011;64907;51.574;6.502;2023-11-19T10:41:31;26.05;;;5.63;;
76157;SDS011;64907;51.574;6.502;2023-11-19T10:44:00;32.72;;;5.95;;
76157;SDS011;64907;51.574;6.502;2023-11-19T10:46:41;32.67;;;5.13;;
76157;SDS011;64907;51.574;6.502;2023-11-19T10:49:07;25.55;;;5.28;;
76157;SDS011;64907;51.574;6.502;2023-11-19T10:54:02;22.80;;;4.70;;
76157;SDS011;64907;51.574;6.502;2023-11-19T10:56:31;29.60;;;5.32;;
76157;SDS011;64907;51.574;6.502;2023-11-19T11:01:38;26.92;;;5.57;;
76157;SDS011;64907;51.574;6.502;2023-11-19T11:04:05;25.35;;;5.32;;
76157;SDS011;64907;51.574;6.502;2023-11-19T11:06:36;29.75;;;5.68;;
76157;SDS011;64907;51.574;6.502;2023-11-19T11:09:01;26.40;;;5.05;;
76157;SDS011;64907;51.574;6.502;2023-11-19T11:11:27;24.10;;;5.80;;
76157;SDS011;64907;51.574;6.502;2023-11-19T11:13:53;28.15;;;6.05;;
76157;SDS011;64907;51.574;6.502;2023-11-19T11:16:20;27.13;;;5.30;;
76157;SDS011;64907;51.574;6.502;2023-11-19T11:18:46;28.02;;;5.32;;
76157;SDS011;64907;51.574;6.502;2023-11-19T11:21:15;22.20;;;4.82;;
76157;SDS011;64907;51.574;6.502;2023-11-19T11:26:48;17.35;;;4.18;;
76157;SDS011;64907;51.574;6.502;2023-11-19T11:31:54;27.90;;;5.55;;
76157;SDS011;64907;51.574;6.502;2023-11-19T11:36:55;29.20;;;5.32;;
76157;SDS011;64907;51.574;6.502;2023-11-19T11:39:25;28.45;;;5.10;;
76157;SDS011;64907;51.574;6.502;2023-11-19T11:47:21;28.65;;;6.03;;
76157;SDS011;64907;51.574;6.502;2023-11-19T11:49:46;28.97;;;6.13;;
76157;SDS011;64907;51.574;6.502;2023-11-19T11:52:11;20.60;;;4.38;;
76157;SDS011;64907;51.574;6.502;2023-11-19T11:54:39;25.00;;;5.30;;
76157;SDS011;64907;51.574;6.502;2023-11-19T11:57:13;29.98;;;6.20;;
76157;SDS011;64907;51.574;6.502;2023-11-19T12:02:11;18.95;;;4.30;;
76157;SDS011;64907;51.574;6.502;2023-11-19T12:04:36;21.80;;;4.97;;
76157;SDS011;64907;51.574;6.502;2023-11-19T12:07:14;20.40;;;4.17;;
76157;SDS011;64907;51.574;6.502;2023-11-19T12:09:40;25.08;;;6.00;;
76157;SDS011;64907;51.574;6.502;2023-11-19T12:12:22;19.75;;;4.53;;
76157;SDS011;64907;51.574;6.502;2023-11-19T12:17:57;22.05;;;4.80;;
76157;SDS011;64907;51.574;6.502;2023-11-19T12:28:15;26.05;;;4.93;;
76157;SDS011;64907;51.574;6.502;2023-11-19T12:30:46;30.40;;;5.88;;
76157;SDS011;64907;51.574;6.502;2023-11-19T12:38:30;21.63;;;4.38;;
76157;SDS011;64907;51.574;6.502;2023-11-19T12:41:09;22.48;;;4.10;;
76157;SDS011;64907;51.574;6.502;2023-11-19T12:43:38;24.20;;;4.78;;
76157;SDS011;64907;51.574;6.502;2023-11-19T12:49:14;16.80;;;4.00;;
76157;SDS011;64907;51.574;6.502;2023-11-19T12:51:40;17.35;;;3.95;;
76157;SDS011;64907;51.574;6.502;2023-11-19T12:54:18;19.73;;;4.45;;
76157;SDS011;64907;51.574;6.502;2023-11-19T12:57:04;11.85;;;3.72;;
76157;SDS011;64907;51.574;6.502;2023-11-19T12:59:33;17.17;;;3.50;;
76157;SDS011;64907;51.574;6.502;2023-11-19T13:04:40;14.73;;;3.78;;
76157;SDS011;64907;51.574;6.502;2023-11-19T13:07:07;17.83;;;4.10;;
76157;SDS011;64907;51.574;6.502;2023-11-19T13:09:48;19.52;;;4.28;;
76157;SDS011;64907;51.574;6.502;2023-11-19T13:12:15;20.42;;;4.15;;
76157;SDS011;64907;51.574;6.502;2023-11-19T13:22:32;20.63;;;5.00;;
76157;SDS011;64907;51.574;6.502;2023-11-19T13:25:03;24.17;;;5.33;;
76157;SDS011;64907;51.574;6.502;2023-11-19T13:27:32;18.70;;;3.70;;
76157;SDS011;64907;51.574;6.502;2023-11-19T13:29:59;17.67;;;3.88;;
76157;SDS011;64907;51.574;6.502;2023-11-19T13:34:54;22.08;;;4.57;;
76157;SDS011;64907;51.574;6.502;2023-11-19T13:37:21;23.85;;;4.90;;
76157;SDS011;64907;51.574;6.502;2023-11-19T13:42:17;21.88;;;4.10;;
76157;SDS011;64907;51.574;6.502;2023-11-19T13:44:44;19.70;;;4.00;;
76157;SDS011;64907;51.574;6.502;2023-11-19T13:49:40;15.00;;;3.72;;
76157;SDS011;64907;51.574;6.502;2023-11-19T13:52:07;25.52;;;4.57;;
76157;SDS011;64907;51.574;6.502;2023-11-19T13:54:45;19.20;;;4.32;;
76157;SDS011;64907;51.574;6.502;2023-11-19T13:57:11;23.88;;;4.57;;
76157;SDS011;64907;51.574;6.502;2023-11-19T14:04:42;21.35;;;4.20;;
76157;SDS011;64907;51.574;6.502;2023-11-19T14:07:09;18.55;;;4.22;;
76157;SDS011;64907;51.574;6.502;2023-11-19T14:09:38;24.20;;;4.82;;
76157;SDS011;64907;51.574;6.502;2023-11-19T14:12:05;18.60;;;4.43;;
76157;SDS011;64907;51.574;6.502;2023-11-19T14:17:01;17.95;;;3.88;;
76157;SDS011;64907;51.574;6.502;2023-11-19T14:19:29;16.20;;;4.03;;
76157;SDS011;64907;51.574;6.502;2023-11-19T14:21:57;23.67;;;4.85;;
76157;SDS011;64907;51.574;6.502;2023-11-19T14:24:22;20.88;;;4.30;;
76157;SDS011;64907;51.574;6.502;2023-11-19T14:26:49;26.02;;;5.55;;
76157;SDS011;64907;51.574;6.502;2023-11-19T14:29:16;24.80;;;4.43;;
76157;SDS011;64907;51.574;6.502;2023-11-19T14:31:41;28.27;;;5.10;;
76157;SDS011;64907;51.574;6.502;2023-11-19T14:34:06;27.73;;;5.07;;
76157;SDS011;64907;51.574;6.502;2023-11-19T14:36:32;18.35;;;3.95;;
76157;SDS011;64907;51.574;6.502;2023-11-19T14:41:27;17.73;;;4.05;;
76157;SDS011;64907;51.574;6.502;2023-11-19T14:46:21;14.63;;;4.18;;
76157;SDS011;64907;51.574;6.502;2023-11-19T14:48:54;15.63;;;3.20;;
76157;SDS011;64907;51.574;6.502;2023-11-19T14:51:19;19.75;;;4.45;;
76157;SDS011;64907;51.574;6.502;2023-11-19T14:53:45;20.95;;;4.68;;
76157;SDS011;64907;51.574;6.502;2023-11-19T14:56:12;21.33;;;4.47;;
76157;SDS011;64907;51.574;6.502;2023-11-19T14:58:40;20.00;;;4.05;;
76157;SDS011;64907;51.574;6.502;2023-11-19T15:01:06;16.33;;;4.90;;
76157;SDS011;64907;51.574;6.502;2023-11-19T15:03:34;18.08;;;4.22;;
76157;SDS011;64907;51.574;6.502;2023-11-19T15:05:59;18.27;;;4.80;;
76157;SDS011;64907;51.574;6.502;2023-11-19T15:08:24;12.60;;;3.13;;
76157;SDS011;64907;51.574;6.502;2023-11-19T15:10:57;17.70;;;3.58;;
76157;SDS011;64907;51.574;6.502;2023-11-19T15:13:26;20.60;;;4.70;;
76157;SDS011;64907;51.574;6.502;2023-11-19T15:16:05;15.77;;;3.58;;
76157;SDS011;64907;51.574;6.502;2023-11-19T15:18:32;13.90;;;3.30;;
76157;SDS011;64907;51.574;6.502;2023-11-19T15:21:11;17.98;;;3.80;;
76157;SDS011;64907;51.574;6.502;2023-11-19T15:23:36;13.40;;;3.80;;
76157;SDS011;64907;51.574;6.502;2023-11-19T15:26:02;19.58;;;4.85;;
76157;SDS011;64907;51.574;6.502;2023-11-19T15:28:27;24.48;;;4.65;;
76157;SDS011;64907;51.574;6.502;2023-11-19T15:33:29;17.45;;;3.63;;
76157;SDS011;64907;51.574;6.502;2023-11-19T15:35:54;20.00;;;4.35;;
76157;SDS011;64907;51.574;6.502;2023-11-19T15:38:20;20.57;;;4.60;;
76157;SDS011;64907;51.574;6.502;2023-11-19T15:40:46;20.48;;;5.07;;
76157;SDS011;64907;51.574;6.502;2023-11-19T15:43:11;18.03;;;4.03;;
76157;SDS011;64907;51.574;6.502;2023-11-19T15:45:48;20.07;;;5.10;;
76157;SDS011;64907;51.574;6.502;2023-11-19T15:48:14;18.30;;;4.30;;
76157;SDS011;64907;51.574;6.502;2023-11-19T15:50:40;17.80;;;3.30;;
76157;SDS011;64907;51.574;6.502;2023-11-19T15:58:17;21.25;;;5.03;;
76157;SDS011;64907;51.574;6.502;2023-11-19T16:03:12;23.15;;;5.35;;
76157;SDS011;64907;51.574;6.502;2023-11-19T16:05:38;24.27;;;4.82;;
76157;SDS011;64907;51.574;6.502;2023-11-19T16:08:05;20.58;;;4.32;;
76157;SDS011;64907;51.574;6.502;2023-11-19T16:10:32;24.75;;;4.45;;
76157;SDS011;64907;51.574;6.502;2023-11-19T16:13:04;20.65;;;5.30;;
76157;SDS011;64907;51.574;6.502;2023-11-19T16:15:38;23.17;;;5.95;;
76157;SDS011;64907;51.574;6.502;2023-11-19T16:20:36;26.38;;;4.88;;
76157;SDS011;64907;51.574;6.502;2023-11-19T16:25:40;27.23;;;5.25;;
76157;SDS011;64907;51.574;6.502;2023-11-19T16:28:05;22.70;;;5.32;;
76157;SDS011;64907;51.574;6.502;2023-11-19T16:30:39;23.30;;;5.10;;
76157;SDS011;64907;51.574;6.502;2023-11-19T16:33:12;26.77;;;4.68;;
76157;SDS011;64907;51.574;6.502;2023-11-19T16:35:41;18.75;;;4.10;;
76157;SDS011;64907;51.574;6.502;2023-11-19T16:38:10;20.08;;;4.88;;
76157;SDS011;64907;51.574;6.502;2023-11-19T16:40:35;33.35;;;5.15;;
76157;SDS011;64907;51.574;6.502;2023-11-19T16:43:10;28.20;;;5.60;;
76157;SDS011;64907;51.574;6.502;2023-11-19T16:45:39;23.42;;;4.18;;
76157;SDS011;64907;51.574;6.502;2023-11-19T16:53:05;18.38;;;5.07;;
76157;SDS011;64907;51.574;6.502;2023-11-19T16:55:45;21.95;;;4.40;;
76157;SDS011;64907;51.574;6.502;2023-11-19T16:58:10;26.08;;;4.78;;
76157;SDS011;64907;51.574;6.502;2023-11-19T17:00:37;25.65;;;5.32;;
76157;SDS011;64907;51.574;6.502;2023-11-19T17:03:04;21.45;;;4.97;;
76157;SDS011;64907;51.574;6.502;2023-11-19T17:10:35;23.27;;;3.95;;
76157;SDS011;64907;51.574;6.502;2023-11-19T17:13:02;17.95;;;4.93;;
76157;SDS011;64907;51.574;6.502;2023-11-19T17:15:27;17.70;;;4.82;;
76157;SDS011;64907;51.574;6.502;2023-11-19T17:18:01;27.90;;;4.32;;
76157;SDS011;64907;51.574;6.502;2023-11-19T17:20:34;16.48;;;4.28;;